Terminal Aerodrome Forecast
Issued by NWS Louisville, KY

Home | Current Version | Previous Version | Text Only | Print | Product List | Glossary On
Versions: 1 2 3 4 5 6 7 8 9 10 11 12 13
127
FTUS43 KLMK 251729
TAFBWG
TAF
KBWG 251729Z 2518/2618 09006KT P6SM SCT027 SCT040
     FM260100 VRB03KT P6SM FEW250
     FM261400 16004KT P6SM FEW250=

USA.gov is the U.S. government's official web portal to all federal, state and local government web resources and services.